sensor_id;sensor_type;location;lat;lon;timestamp;pressure;altitude;pressure_sealevel;temperature;humidity
6514;BME280;3290;47.716;9.070;2023-02-11T00:00:08;98971.47;;;-0.03;100.00
6514;BME280;3290;47.716;9.070;2023-02-11T00:02:34;98970.34;;;0.01;100.00
6514;BME280;3290;47.716;9.070;2023-02-11T00:05:00;98970.94;;;-0.08;100.00
6514;BME280;3290;47.716;9.070;2023-02-11T00:07:30;98972.97;;;-0.25;100.00
6514;BME280;3290;47.716;9.070;2023-02-11T00:09:55;98970.50;;;-0.14;100.00
6514;BME280;3290;47.716;9.070;2023-02-11T00:12:21;98969.09;;;-0.06;100.00
6514;BME280;3290;47.716;9.070;2023-02-11T00:14:47;98965.81;;;0.04;100.00
6514;BME280;3290;47.716;9.070;2023-02-11T00:17:12;98966.16;;;0.00;99.96
6514;BME280;3290;47.716;9.070;2023-02-11T00:19:38;98962.72;;;-0.01;100.00
6514;BME280;3290;47.716;9.070;2023-02-11T00:22:04;98959.84;;;0.04;100.00
6514;BME280;3290;47.716;9.070;2023-02-11T00:24:29;98955.84;;;0.00;99.85
6514;BME280;3290;47.716;9.070;2023-02-11T00:26:55;98950.97;;;-0.04;100.00
6514;BME280;3290;47.716;9.070;2023-02-11T00:29:20;98944.00;;;0.10;99.70
6514;BME280;3290;47.716;9.070;2023-02-11T00:31:45;98942.75;;;0.15;99.50
6514;BME280;3290;47.716;9.070;2023-02-11T00:34:11;98951.28;;;0.03;99.99
6514;BME280;3290;47.716;9.070;2023-02-11T00:36:36;98945.81;;;-0.04;99.99
6514;BME280;3290;47.716;9.070;2023-02-11T00:39:02;98952.94;;;-0.08;99.95
6514;BME280;3290;47.716;9.070;2023-02-11T00:41:28;98954.75;;;-0.22;100.00
6514;BME280;3290;47.716;9.070;2023-02-11T00:43:53;98953.78;;;-0.34;100.00
6514;BME280;3290;47.716;9.070;2023-02-11T00:46:19;98955.88;;;-0.26;100.00
6514;BME280;3290;47.716;9.070;2023-02-11T00:48:45;98943.28;;;-0.31;100.00
6514;BME280;3290;47.716;9.070;2023-02-11T00:51:10;98937.53;;;-0.22;99.93
6514;BME280;3290;47.716;9.070;2023-02-11T00:53:36;98930.75;;;-0.23;99.46
6514;BME280;3290;47.716;9.070;2023-02-11T00:56:02;98936.75;;;-0.10;99.03
6514;BME280;3290;47.716;9.070;2023-02-11T00:58:27;98929.75;;;-0.08;98.79
6514;BME280;3290;47.716;9.070;2023-02-11T01:00:54;98931.97;;;-0.16;99.20
6514;BME280;3290;47.716;9.070;2023-02-11T01:03:19;98928.97;;;-0.35;99.73
6514;BME280;3290;47.716;9.070;2023-02-11T01:05:45;98927.81;;;-0.43;99.90
6514;BME280;3290;47.716;9.070;2023-02-11T01:08:10;98928.16;;;-0.61;100.00
6514;BME280;3290;47.716;9.070;2023-02-11T01:10:36;98936.59;;;-0.85;100.00
6514;BME280;3290;47.716;9.070;2023-02-11T01:13:02;98921.59;;;-0.79;100.00
6514;BME280;3290;47.716;9.070;2023-02-11T01:15:27;98906.69;;;-0.74;100.00
6514;BME280;3290;47.716;9.070;2023-02-11T01:17:53;98919.41;;;-0.85;100.00
6514;BME280;3290;47.716;9.070;2023-02-11T01:20:21;98924.69;;;-1.00;100.00
6514;BME280;3290;47.716;9.070;2023-02-11T01:22:47;98921.84;;;-0.96;100.00
6514;BME280;3290;47.716;9.070;2023-02-11T01:25:13;98922.34;;;-1.17;100.00
6514;BME280;3290;47.716;9.070;2023-02-11T01:27:38;98915.34;;;-1.15;100.00
6514;BME280;3290;47.716;9.070;2023-02-11T01:30:06;98911.41;;;-1.20;100.00
6514;BME280;3290;47.716;9.070;2023-02-11T01:32:32;98913.06;;;-1.20;100.00
6514;BME280;3290;47.716;9.070;2023-02-11T01:34:58;98913.41;;;-0.98;100.00
6514;BME280;3290;47.716;9.070;2023-02-11T01:37:23;98916.88;;;-0.99;100.00
6514;BME280;3290;47.716;9.070;2023-02-11T01:39:49;98911.34;;;-0.93;100.00
6514;BME280;3290;47.716;9.070;2023-02-11T01:42:20;98904.84;;;-0.72;100.00
6514;BME280;3290;47.716;9.070;2023-02-11T01:44:48;98905.34;;;-0.53;100.00
6514;BME280;3290;47.716;9.070;2023-02-11T01:47:15;98896.50;;;-0.37;100.00
6514;BME280;3290;47.716;9.070;2023-02-11T01:49:54;98899.94;;;-0.37;100.00
6514;BME280;3290;47.716;9.070;2023-02-11T01:54:53;98902.28;;;-0.72;100.00
6514;BME280;3290;47.716;9.070;2023-02-11T01:57:42;98911.06;;;-0.88;100.00
6514;BME280;3290;47.716;9.070;2023-02-11T02:00:29;98906.88;;;-1.03;100.00
6514;BME280;3290;47.716;9.070;2023-02-11T02:05:42;98903.13;;;-1.12;100.00
6514;BME280;3290;47.716;9.070;2023-02-11T02:10:58;98904.09;;;-1.00;100.00
6514;BME280;3290;47.716;9.070;2023-02-11T02:13:26;98902.06;;;-0.95;100.00
6514;BME280;3290;47.716;9.070;2023-02-11T02:16:20;98895.78;;;-1.18;100.00
6514;BME280;3290;47.716;9.070;2023-02-11T02:38:06;98887.31;;;-0.53;100.00
6514;BME280;3290;47.716;9.070;2023-02-11T02:43:11;98888.09;;;-0.65;100.00
6514;BME280;3290;47.716;9.070;2023-02-11T02:45:37;98877.50;;;-0.73;100.00
6514;BME280;3290;47.716;9.070;2023-02-11T02:48:03;98877.34;;;-0.84;100.00
6514;BME280;3290;47.716;9.070;2023-02-11T02:50:32;98872.63;;;-1.04;100.00
6514;BME280;3290;47.716;9.070;2023-02-11T02:56:16;98868.66;;;-0.95;100.00
6514;BME280;3290;47.716;9.070;2023-02-11T02:59:09;98858.72;;;-0.87;100.00
6514;BME280;3290;47.716;9.070;2023-02-11T03:01:54;98864.56;;;-1.12;100.00
6514;BME280;3290;47.716;9.070;2023-02-11T03:04:39;98861.56;;;-0.92;100.00
6514;BME280;3290;47.716;9.070;2023-02-11T03:07:39;98858.63;;;-0.74;100.00
6514;BME280;3290;47.716;9.070;2023-02-11T03:10:10;98864.53;;;-0.72;100.00
6514;BME280;3290;47.716;9.070;2023-02-11T03:12:38;98876.94;;;-0.78;100.00
6514;BME280;3290;47.716;9.070;2023-02-11T03:15:07;98870.72;;;-0.88;100.00
6514;BME280;3290;47.716;9.070;2023-02-11T03:17:34;98864.91;;;-1.04;100.00
6514;BME280;3290;47.716;9.070;2023-02-11T03:20:02;98863.31;;;-1.19;100.00
6514;BME280;3290;47.716;9.070;2023-02-11T03:22:34;98857.94;;;-1.16;100.00
6514;BME280;3290;47.716;9.070;2023-02-11T03:25:03;98856.28;;;-1.03;100.00
6514;BME280;3290;47.716;9.070;2023-02-11T03:27:32;98856.56;;;-1.07;100.00
6514;BME280;3290;47.716;9.070;2023-02-11T03:30:13;98858.75;;;-1.27;100.00
6514;BME280;3290;47.716;9.070;2023-02-11T03:32:51;98843.50;;;-1.30;100.00
6514;BME280;3290;47.716;9.070;2023-02-11T03:35:32;98837.09;;;-1.37;100.00
6514;BME280;3290;47.716;9.070;2023-02-11T03:38:06;98838.59;;;-1.21;100.00
6514;BME280;3290;47.716;9.070;2023-02-11T03:40:38;98833.69;;;-1.38;100.00
6514;BME280;3290;47.716;9.070;2023-02-11T03:43:17;98835.66;;;-1.55;100.00
6514;BME280;3290;47.716;9.070;2023-02-11T03:45:45;98841.88;;;-1.45;100.00
6514;BME280;3290;47.716;9.070;2023-02-11T03:48:15;98840.38;;;-1.35;100.00
6514;BME280;3290;47.716;9.070;2023-02-11T03:50:44;98832.88;;;-1.12;100.00
6514;BME280;3290;47.716;9.070;2023-02-11T03:53:12;98829.50;;;-1.13;100.00
6514;BME280;3290;47.716;9.070;2023-02-11T03:55:39;98828.53;;;-1.24;100.00
6514;BME280;3290;47.716;9.070;2023-02-11T03:58:06;98813.69;;;-1.33;100.00
6514;BME280;3290;47.716;9.070;2023-02-11T04:00:33;98826.31;;;-1.30;100.00
6514;BME280;3290;47.716;9.070;2023-02-11T04:03:01;98821.78;;;-1.13;100.00
6514;BME280;3290;47.716;9.070;2023-02-11T04:05:26;98825.97;;;-0.98;100.00
6514;BME280;3290;47.716;9.070;2023-02-11T04:07:52;98827.38;;;-1.06;100.00
6514;BME280;3290;47.716;9.070;2023-02-11T04:10:17;98837.25;;;-1.26;100.00
6514;BME280;3290;47.716;9.070;2023-02-11T04:12:43;98832.19;;;-1.28;100.00
6514;BME280;3290;47.716;9.070;2023-02-11T04:15:08;98834.63;;;-1.13;100.00
6514;BME280;3290;47.716;9.070;2023-02-11T04:17:34;98829.66;;;-1.16;100.00
6514;BME280;3290;47.716;9.070;2023-02-11T04:19:59;98843.41;;;-1.29;100.00
6514;BME280;3290;47.716;9.070;2023-02-11T04:22:25;98839.63;;;-1.23;100.00
6514;BME280;3290;47.716;9.070;2023-02-11T04:24:50;98828.97;;;-1.31;100.00
6514;BME280;3290;47.716;9.070;2023-02-11T04:27:16;98828.25;;;-1.33;100.00
6514;BME280;3290;47.716;9.070;2023-02-11T04:29:41;98836.94;;;-1.08;100.00
6514;BME280;3290;47.716;9.070;2023-02-11T04:32:07;98835.56;;;-1.14;100.00
6514;BME280;3290;47.716;9.070;2023-02-11T04:34:32;98836.38;;;-1.13;100.00
6514;BME280;3290;47.716;9.070;2023-02-11T04:36:57;98846.94;;;-1.18;100.00
6514;BME280;3290;47.716;9.070;2023-02-11T04:39:23;98843.50;;;-1.04;100.00
6514;BME280;3290;47.716;9.070;2023-02-11T04:41:48;98841.50;;;-0.99;100.00
6514;BME280;3290;47.716;9.070;2023-02-11T04:44:14;98838.19;;;-1.27;100.00
6514;BME280;3290;47.716;9.070;2023-02-11T04:46:39;98850.22;;;-1.16;100.00
6514;BME280;3290;47.716;9.070;2023-02-11T04:49:04;98844.81;;;-0.85;100.00
6514;BME280;3290;47.716;9.070;2023-02-11T04:51:30;98849.88;;;-0.83;100.00
6514;BME280;3290;47.716;9.070;2023-02-11T04:53:56;98858.53;;;-0.72;100.00
6514;BME280;3290;47.716;9.070;2023-02-11T04:56:22;98853.31;;;-0.97;100.00
6514;BME280;3290;47.716;9.070;2023-02-11T04:58:47;98857.72;;;-0.99;100.00
6514;BME280;3290;47.716;9.070;2023-02-11T05:01:14;98868.25;;;-0.89;100.00
6514;BME280;3290;47.716;9.070;2023-02-11T05:03:40;98853.78;;;-1.30;100.00
6514;BME280;3290;47.716;9.070;2023-02-11T05:06:07;98865.44;;;-1.39;100.00
6514;BME280;3290;47.716;9.070;2023-02-11T05:08:33;98867.84;;;-1.50;100.00
6514;BME280;3290;47.716;9.070;2023-02-11T05:10:58;98866.72;;;-1.32;100.00
6514;BME280;3290;47.716;9.070;2023-02-11T05:13:26;98874.50;;;-1.33;100.00
6514;BME280;3290;47.716;9.070;2023-02-11T05:15:52;98877.38;;;-1.24;100.00
6514;BME280;3290;47.716;9.070;2023-02-11T05:18:17;98877.13;;;-1.07;100.00
6514;BME280;3290;47.716;9.070;2023-02-11T05:20:43;98888.63;;;-1.13;100.00
6514;BME280;3290;47.716;9.070;2023-02-11T05:23:09;98882.13;;;-0.92;100.00
6514;BME280;3290;47.716;9.070;2023-02-11T05:25:35;98884.44;;;-0.87;100.00
6514;BME280;3290;47.716;9.070;2023-02-11T05:28:01;98890.34;;;-0.99;100.00
6514;BME280;3290;47.716;9.070;2023-02-11T05:30:27;98892.44;;;-0.92;100.00
6514;BME280;3290;47.716;9.070;2023-02-11T05:32:52;98903.16;;;-0.85;100.00
6514;BME280;3290;47.716;9.070;2023-02-11T05:35:18;98895.13;;;-0.81;100.00
6514;BME280;3290;47.716;9.070;2023-02-11T05:37:43;98896.31;;;-0.99;100.00
6514;BME280;3290;47.716;9.070;2023-02-11T05:40:09;98889.44;;;-1.12;100.00
6514;BME280;3290;47.716;9.070;2023-02-11T05:42:34;98888.25;;;-1.07;100.00
6514;BME280;3290;47.716;9.070;2023-02-11T05:45:00;98884.94;;;-1.09;100.00
6514;BME280;3290;47.716;9.070;2023-02-11T05:47:25;98899.34;;;-1.06;100.00
6514;BME280;3290;47.716;9.070;2023-02-11T05:49:51;98902.50;;;-1.15;100.00
6514;BME280;3290;47.716;9.070;2023-02-11T05:52:18;98898.53;;;-1.07;100.00
6514;BME280;3290;47.716;9.070;2023-02-11T05:54:44;98904.75;;;-0.97;100.00
6514;BME280;3290;47.716;9.070;2023-02-11T05:57:09;98908.00;;;-1.21;100.00
6514;BME280;3290;47.716;9.070;2023-02-11T05:59:35;98906.00;;;-1.30;100.00
6514;BME280;3290;47.716;9.070;2023-02-11T06:02:00;98903.97;;;-1.25;100.00
6514;BME280;3290;47.716;9.070;2023-02-11T06:04:26;98903.69;;;-1.07;100.00
6514;BME280;3290;47.716;9.070;2023-02-11T06:06:51;98894.91;;;-0.90;100.00
6514;BME280;3290;47.716;9.070;2023-02-11T06:09:17;98889.31;;;-0.97;100.00
6514;BME280;3290;47.716;9.070;2023-02-11T06:11:42;98883.00;;;-1.05;99.80
6514;BME280;3290;47.716;9.070;2023-02-11T06:14:07;98879.22;;;-1.00;98.46
6514;BME280;3290;47.716;9.070;2023-02-11T06:16:34;98881.69;;;-0.98;98.64
6514;BME280;3290;47.716;9.070;2023-02-11T06:18:59;98873.75;;;-0.81;97.75
6514;BME280;3290;47.716;9.070;2023-02-11T06:21:24;98875.63;;;-0.97;98.12
6514;BME280;3290;47.716;9.070;2023-02-11T06:23:50;98861.34;;;-1.01;98.02
6514;BME280;3290;47.716;9.070;2023-02-11T06:26:19;98862.34;;;-1.04;98.41
6514;BME280;3290;47.716;9.070;2023-02-11T06:28:45;98858.53;;;-1.24;99.84
6514;BME280;3290;47.716;9.070;2023-02-11T06:31:10;98861.88;;;-1.36;100.00
6514;BME280;3290;47.716;9.070;2023-02-11T06:33:37;98855.91;;;-1.51;100.00
6514;BME280;3290;47.716;9.070;2023-02-11T06:36:03;98862.53;;;-1.47;100.00
6514;BME280;3290;47.716;9.070;2023-02-11T06:38:29;98858.41;;;-1.63;100.00
6514;BME280;3290;47.716;9.070;2023-02-11T06:40:54;98863.84;;;-1.81;100.00
6514;BME280;3290;47.716;9.070;2023-02-11T06:43:19;98852.44;;;-1.77;100.00
6514;BME280;3290;47.716;9.070;2023-02-11T06:45:51;98849.63;;;-1.73;100.00
6514;BME280;3290;47.716;9.070;2023-02-11T06:48:17;98848.53;;;-1.29;100.00
6514;BME280;3290;47.716;9.070;2023-02-11T06:50:42;98846.81;;;-1.42;100.00
6514;BME280;3290;47.716;9.070;2023-02-11T06:53:07;98841.66;;;-1.28;100.00
6514;BME280;3290;47.716;9.070;2023-02-11T06:55:34;98831.94;;;-1.37;100.00
6514;BME280;3290;47.716;9.070;2023-02-11T06:58:00;98829.03;;;-1.45;100.00
6514;BME280;3290;47.716;9.070;2023-02-11T07:00:26;98817.03;;;-1.19;100.00
6514;BME280;3290;47.716;9.070;2023-02-11T07:02:53;98821.75;;;-1.39;100.00
6514;BME280;3290;47.716;9.070;2023-02-11T07:05:19;98812.13;;;-1.09;100.00
6514;BME280;3290;47.716;9.070;2023-02-11T07:07:44;98807.47;;;-1.17;100.00
6514;BME280;3290;47.716;9.070;2023-02-11T07:10:10;98805.97;;;-1.07;100.00
6514;BME280;3290;47.716;9.070;2023-02-11T07:12:35;98812.56;;;-1.03;100.00
6514;BME280;3290;47.716;9.070;2023-02-11T07:15:01;98823.75;;;-1.30;100.00
6514;BME280;3290;47.716;9.070;2023-02-11T07:17:26;98835.94;;;-1.20;100.00
6514;BME280;3290;47.716;9.070;2023-02-11T07:19:52;98830.03;;;-1.08;100.00
6514;BME280;3290;47.716;9.070;2023-02-11T07:22:17;98838.63;;;-1.35;100.00
6514;BME280;3290;47.716;9.070;2023-02-11T07:24:43;98845.84;;;-1.14;100.00
6514;BME280;3290;47.716;9.070;2023-02-11T07:27:08;98847.16;;;-1.20;100.00
6514;BME280;3290;47.716;9.070;2023-02-11T07:29:34;98837.97;;;-0.72;100.00
6514;BME280;3290;47.716;9.070;2023-02-11T07:31:59;98840.94;;;-0.15;100.00
6514;BME280;3290;47.716;9.070;2023-02-11T07:34:25;98830.44;;;0.13;100.00
6514;BME280;3290;47.716;9.070;2023-02-11T07:36:50;98827.53;;;0.78;98.48
6514;BME280;3290;47.716;9.070;2023-02-11T07:39:16;98825.31;;;1.19;95.96
6514;BME280;3290;47.716;9.070;2023-02-11T07:41:41;98819.44;;;1.18;94.38
6514;BME280;3290;47.716;9.070;2023-02-11T07:44:08;98816.66;;;0.85;92.57
6514;BME280;3290;47.716;9.070;2023-02-11T07:46:34;98796.09;;;0.73;93.38
6514;BME280;3290;47.716;9.070;2023-02-11T07:48:59;98791.97;;;0.70;94.96
6514;BME280;3290;47.716;9.070;2023-02-11T07:51:27;98800.91;;;0.41;95.94
6514;BME280;3290;47.716;9.070;2023-02-11T07:53:54;98828.16;;;0.21;99.53
6514;BME280;3290;47.716;9.070;2023-02-11T07:56:20;98859.31;;;0.05;99.33
6514;BME280;3290;47.716;9.070;2023-02-11T07:58:47;98888.69;;;-0.36;100.00
6514;BME280;3290;47.716;9.070;2023-02-11T08:01:16;98877.09;;;-0.04;100.00
6514;BME280;3290;47.716;9.070;2023-02-11T08:03:42;98881.53;;;0.06;100.00
6514;BME280;3290;47.716;9.070;2023-02-11T08:06:13;98890.41;;;0.27;100.00
6514;BME280;3290;47.716;9.070;2023-02-11T08:08:40;98891.44;;;0.37;100.00
6514;BME280;3290;47.716;9.070;2023-02-11T08:13:36;98890.47;;;1.11;98.80
6514;BME280;3290;47.716;9.070;2023-02-11T08:16:03;98897.91;;;1.38;98.50
6514;BME280;3290;47.716;9.070;2023-02-11T08:18:29;98885.38;;;1.79;96.88
6514;BME280;3290;47.716;9.070;2023-02-11T08:20:55;98899.69;;;1.72;95.91
6514;BME280;3290;47.716;9.070;2023-02-11T08:23:20;98904.53;;;2.43;94.53
6514;BME280;3290;47.716;9.070;2023-02-11T08:25:46;98898.91;;;2.49;92.93
6514;BME280;3290;47.716;9.070;2023-02-11T08:28:11;98895.16;;;2.53;94.17
6514;BME280;3290;47.716;9.070;2023-02-11T08:30:37;98909.00;;;3.17;92.88
6514;BME280;3290;47.716;9.070;2023-02-11T08:33:02;98895.06;;;3.40;90.56
6514;BME280;3290;47.716;9.070;2023-02-11T08:35:28;98891.66;;;3.28;90.40
6514;BME280;3290;47.716;9.070;2023-02-11T08:37:53;98898.53;;;3.60;90.12
6514;BME280;3290;47.716;9.070;2023-02-11T08:40:19;98882.34;;;3.88;89.13
6514;BME280;3290;47.716;9.070;2023-02-11T08:42:44;98882.06;;;3.82;88.04
6514;BME280;3290;47.716;9.070;2023-02-11T08:45:10;98880.97;;;3.84;88.81
6514;BME280;3290;47.716;9.070;2023-02-11T08:47:37;98882.44;;;3.97;88.77
6514;BME280;3290;47.716;9.070;2023-02-11T08:50:03;98889.72;;;3.52;89.16
6514;BME280;3290;47.716;9.070;2023-02-11T08:52:29;98886.84;;;3.86;89.14
6514;BME280;3290;47.716;9.070;2023-02-11T08:54:54;98879.31;;;3.63;89.86
6514;BME280;3290;47.716;9.070;2023-02-11T08:57:19;98875.84;;;3.73;89.86
6514;BME280;3290;47.716;9.070;2023-02-11T08:59:45;98879.78;;;3.26;90.61
6514;BME280;3290;47.716;9.070;2023-02-11T09:02:12;98879.81;;;3.46;90.92
6514;BME280;3290;47.716;9.070;2023-02-11T09:04:37;98882.06;;;3.51;89.70
6514;BME280;3290;47.716;9.070;2023-02-11T09:07:03;98879.75;;;4.29;88.15
6514;BME280;3290;47.716;9.070;2023-02-11T09:09:29;98875.72;;;4.65;85.51
6514;BME280;3290;47.716;9.070;2023-02-11T09:11:54;98865.97;;;4.28;83.91
6514;BME280;3290;47.716;9.070;2023-02-11T09:14:22;98845.19;;;4.48;83.15
6514;BME280;3290;47.716;9.070;2023-02-11T09:16:49;98843.53;;;4.47;82.94
6514;BME280;3290;47.716;9.070;2023-02-11T09:19:15;98833.78;;;3.90;84.27
6514;BME280;3290;47.716;9.070;2023-02-11T09:21:41;98836.72;;;3.76;85.28
6514;BME280;3290;47.716;9.070;2023-02-11T09:24:07;98846.44;;;3.63;86.38
6514;BME280;3290;47.716;9.070;2023-02-11T09:26:34;98850.38;;;3.78;86.73
6514;BME280;3290;47.716;9.070;2023-02-11T09:29:00;98847.19;;;3.55;86.39
6514;BME280;3290;47.716;9.070;2023-02-11T09:31:27;98843.78;;;3.74;86.95
6514;BME280;3290;47.716;9.070;2023-02-11T09:33:55;98843.06;;;3.83;86.25
6514;BME280;3290;47.716;9.070;2023-02-11T09:36:24;98844.44;;;3.87;86.62
6514;BME280;3290;47.716;9.070;2023-02-11T09:38:50;98833.34;;;4.05;85.56
6514;BME280;3290;47.716;9.070;2023-02-11T09:41:26;98841.50;;;3.81;86.43
6514;BME280;3290;47.716;9.070;2023-02-11T09:43:59;98846.75;;;3.90;85.67
6514;BME280;3290;47.716;9.070;2023-02-11T09:46:32;98835.91;;;3.96;84.66
6514;BME280;3290;47.716;9.070;2023-02-11T09:48:59;98847.28;;;3.84;85.45
6514;BME280;3290;47.716;9.070;2023-02-11T09:51:41;98852.66;;;3.41;87.36
6514;BME280;3290;47.716;9.070;2023-02-11T09:54:40;98857.13;;;3.39;87.90
6514;BME280;3290;47.716;9.070;2023-02-11T09:57:10;98851.88;;;3.60;87.87
6514;BME280;3290;47.716;9.070;2023-02-11T09:59:36;98853.97;;;3.66;86.61
6514;BME280;3290;47.716;9.070;2023-02-11T10:02:10;98863.22;;;3.80;85.79
6514;BME280;3290;47.716;9.070;2023-02-11T10:07:16;98866.63;;;4.00;84.88
6514;BME280;3290;47.716;9.070;2023-02-11T10:10:02;98875.44;;;3.78;85.73
6514;BME280;3290;47.716;9.070;2023-02-11T10:12:46;98863.41;;;4.08;84.83
6514;BME280;3290;47.716;9.070;2023-02-11T10:18:00;98861.19;;;4.53;82.40
6514;BME280;3290;47.716;9.070;2023-02-11T10:23:38;98864.72;;;4.23;83.05
6514;BME280;3290;47.716;9.070;2023-02-11T10:26:12;98865.91;;;5.26;80.79
6514;BME280;3290;47.716;9.070;2023-02-11T10:28:40;98868.63;;;6.83;72.94
6514;BME280;3290;47.716;9.070;2023-02-11T10:31:10;98854.00;;;7.95;67.46
6514;BME280;3290;47.716;9.070;2023-02-11T10:33:46;98832.09;;;9.54;60.93
6514;BME280;3290;47.716;9.070;2023-02-11T10:36:16;98842.03;;;9.34;58.55
6514;BME280;3290;47.716;9.070;2023-02-11T10:38:42;98841.00;;;9.12;56.69
6514;BME280;3290;47.716;9.070;2023-02-11T10:41:21;98831.38;;;10.08;53.60
6514;BME280;3290;47.716;9.070;2023-02-11T10:43:49;98828.69;;;9.45;55.91
6514;BME280;3290;47.716;9.070;2023-02-11T10:46:21;98825.00;;;10.73;51.76
6514;BME280;3290;47.716;9.070;2023-02-11T10:48:50;98823.03;;;10.05;52.33
6514;BME280;3290;47.716;9.070;2023-02-11T10:51:21;98815.50;;;11.48;49.55
6514;BME280;3290;47.716;9.070;2023-02-11T10:56:31;98827.22;;;10.45;50.06
6514;BME280;3290;47.716;9.070;2023-02-11T11:01:38;98823.81;;;10.21;50.75
6514;BME280;3290;47.716;9.070;2023-02-11T11:04:04;98820.31;;;9.34;52.28
6514;BME280;3290;47.716;9.070;2023-02-11T11:06:31;98814.56;;;10.65;50.70
6514;BME280;3290;47.716;9.070;2023-02-11T11:08:57;98810.91;;;10.81;51.72
6514;BME280;3290;47.716;9.070;2023-02-11T11:11:25;98815.00;;;10.76;51.34
6514;BME280;3290;47.716;9.070;2023-02-11T11:18:52;98802.72;;;11.45;49.35
6514;BME280;3290;47.716;9.070;2023-02-11T11:21:27;98799.09;;;11.46;48.29
6514;BME280;3290;47.716;9.070;2023-02-11T11:23:56;98788.63;;;11.38;47.74
6514;BME280;3290;47.716;9.070;2023-02-11T11:26:25;98779.00;;;11.60;45.86
6514;BME280;3290;47.716;9.070;2023-02-11T11:28:56;98771.13;;;11.60;45.94
6514;BME280;3290;47.716;9.070;2023-02-11T11:31:29;98781.59;;;10.00;50.22
6514;BME280;3290;47.716;9.070;2023-02-11T11:33:57;98778.19;;;10.08;49.65
6514;BME280;3290;47.716;9.070;2023-02-11T11:36:43;98768.72;;;10.53;50.20
6514;BME280;3290;47.716;9.070;2023-02-11T11:39:22;98771.06;;;10.32;50.67
6514;BME280;3290;47.716;9.070;2023-02-11T11:41:56;98759.25;;;10.44;50.09
6514;BME280;3290;47.716;9.070;2023-02-11T11:44:28;98750.69;;;11.70;47.93
6514;BME280;3290;47.716;9.070;2023-02-11T11:48:00;98751.72;;;11.61;46.28
6514;BME280;3290;47.716;9.070;2023-02-11T11:52:59;98763.50;;;10.91;49.03
6514;BME280;3290;47.716;9.070;2023-02-11T11:57:54;98760.69;;;11.22;47.01
6514;BME280;3290;47.716;9.070;2023-02-11T12:00:34;98761.34;;;10.94;46.70
6514;BME280;3290;47.716;9.070;2023-02-11T12:05:33;98756.25;;;11.90;43.59
6514;BME280;3290;47.716;9.070;2023-02-11T12:08:14;98739.75;;;12.32;43.32
6514;BME280;3290;47.716;9.070;2023-02-11T12:10:53;98729.25;;;13.10;43.09
6514;BME280;3290;47.716;9.070;2023-02-11T12:16:13;98736.91;;;11.68;45.01
6514;BME280;3290;47.716;9.070;2023-02-11T12:27:45;98734.78;;;10.97;44.21
6514;BME280;3290;47.716;9.070;2023-02-11T12:38:20;98731.75;;;11.97;43.10
6514;BME280;3290;47.716;9.070;2023-02-11T12:41:00;98721.16;;;11.68;43.97
6514;BME280;3290;47.716;9.070;2023-02-11T12:43:37;98724.16;;;13.09;42.46
6514;BME280;3290;47.716;9.070;2023-02-11T12:54:42;98707.75;;;13.07;42.48
6514;BME280;3290;47.716;9.070;2023-02-11T12:57:17;98716.22;;;13.64;41.30
6514;BME280;3290;47.716;9.070;2023-02-11T13:00:16;98713.06;;;12.92;40.48
6514;BME280;3290;47.716;9.070;2023-02-11T13:03:12;98707.47;;;12.81;41.49
6514;BME280;3290;47.716;9.070;2023-02-11T13:05:54;98695.78;;;12.26;41.89
6514;BME280;3290;47.716;9.070;2023-02-11T13:08:37;98702.34;;;11.79;41.85
6514;BME280;3290;47.716;9.070;2023-02-11T13:11:10;98695.13;;;12.67;41.57
6514;BME280;3290;47.716;9.070;2023-02-11T13:14:22;98689.16;;;12.44;42.98
6514;BME280;3290;47.716;9.070;2023-02-11T13:16:46;98687.09;;;12.11;44.52
6514;BME280;3290;47.716;9.070;2023-02-11T13:19:40;98696.88;;;11.44;45.44
6514;BME280;3290;47.716;9.070;2023-02-11T13:22:18;98699.31;;;11.54;45.78
6514;BME280;3290;47.716;9.070;2023-02-11T13:25:03;98687.50;;;11.86;44.72
6514;BME280;3290;47.716;9.070;2023-02-11T13:30:34;98681.03;;;11.38;45.85
6514;BME280;3290;47.716;9.070;2023-02-11T13:33:15;98672.94;;;11.03;46.28
6514;BME280;3290;47.716;9.070;2023-02-11T13:35:49;98673.97;;;11.38;45.07
6514;BME280;3290;47.716;9.070;2023-02-11T13:38:34;98660.41;;;11.57;45.29
6514;BME280;3290;47.716;9.070;2023-02-11T13:43:32;98659.06;;;11.75;46.02
6514;BME280;3290;47.716;9.070;2023-02-11T13:46:12;98654.09;;;11.21;46.79
6514;BME280;3290;47.716;9.070;2023-02-11T13:48:46;98656.16;;;11.12;47.90
6514;BME280;3290;47.716;9.070;2023-02-11T13:51:26;98650.50;;;11.45;47.17
6514;BME280;3290;47.716;9.070;2023-02-11T13:53:57;98642.78;;;11.94;44.84
6514;BME280;3290;47.716;9.070;2023-02-11T13:56:34;98647.47;;;11.84;45.15
6514;BME280;3290;47.716;9.070;2023-02-11T13:59:03;98641.97;;;11.43;45.25
6514;BME280;3290;47.716;9.070;2023-02-11T14:04:31;98650.16;;;11.03;48.21
6514;BME280;3290;47.716;9.070;2023-02-11T14:07:26;98652.94;;;11.24;46.63
6514;BME280;3290;47.716;9.070;2023-02-11T14:13:55;98645.84;;;11.10;46.17
6514;BME280;3290;47.716;9.070;2023-02-11T14:16:23;98648.47;;;11.32;46.41
6514;BME280;3290;47.716;9.070;2023-02-11T14:23:46;98632.81;;;12.33;43.49
6514;BME280;3290;47.716;9.070;2023-02-11T14:38:02;98629.34;;;11.24;43.71
6514;BME280;3290;47.716;9.070;2023-02-11T14:40:27;98621.78;;;11.65;43.68
6514;BME280;3290;47.716;9.070;2023-02-11T14:42:56;98616.53;;;11.43;43.82
6514;BME280;3290;47.716;9.070;2023-02-11T14:45:27;98622.28;;;11.47;43.88
6514;BME280;3290;47.716;9.070;2023-02-11T14:48:05;98632.13;;;11.00;44.48
6514;BME280;3290;47.716;9.070;2023-02-11T14:53:01;98632.75;;;11.24;44.76
6514;BME280;3290;47.716;9.070;2023-02-11T14:55:33;98626.00;;;11.30;44.96
6514;BME280;3290;47.716;9.070;2023-02-11T15:01:02;98626.09;;;11.36;44.22
6514;BME280;3290;47.716;9.070;2023-02-11T15:06:02;98628.34;;;10.80;46.93
6514;BME280;3290;47.716;9.070;2023-02-11T15:08:29;98625.63;;;10.96;46.85
6514;BME280;3290;47.716;9.070;2023-02-11T15:10:56;98627.25;;;11.34;45.46
6514;BME280;3290;47.716;9.070;2023-02-11T15:13:24;98624.38;;;10.62;47.69
6514;BME280;3290;47.716;9.070;2023-02-11T15:15:58;98625.69;;;10.88;47.23
6514;BME280;3290;47.716;9.070;2023-02-11T15:18:32;98631.72;;;10.67;47.96
6514;BME280;3290;47.716;9.070;2023-02-11T15:20:59;98626.34;;;10.60;47.30
6514;BME280;3290;47.716;9.070;2023-02-11T15:23:27;98629.34;;;10.49;48.02
6514;BME280;3290;47.716;9.070;2023-02-11T15:25:53;98639.44;;;10.60;47.91
6514;BME280;3290;47.716;9.070;2023-02-11T15:28:28;98633.09;;;10.25;49.19
6514;BME280;3290;47.716;9.070;2023-02-11T15:31:01;98635.06;;;10.53;48.66
6514;BME280;3290;47.716;9.070;2023-02-11T15:33:27;98630.06;;;10.43;48.71
6514;BME280;3290;47.716;9.070;2023-02-11T15:35:57;98632.28;;;10.54;49.15
6514;BME280;3290;47.716;9.070;2023-02-11T15:38:23;98632.19;;;10.40;48.80